Time;durP1;ratioP1;P1;durP2;ratioP2;P2;SDS_P1;SDS_P2;PMS_P1;PMS_P2;Temp;Humidity;BMP_temperature;BMP_pressure;BME280_temperature;BME280_humidity;BME280_pressure;Samples;Min_cycle;Max_cycle;Signal;HPM_P1;HPM_P2
2021/09/17 00:00:33;;;;;;;29.17;23.60;;;15.60;99.90;;;;;;5065471;28;20515;-84
2021/09/17 00:03:04;;;;;;;27.98;23.05;;;15.60;99.90;;;;;;5074504;28;20028;-84
2021/09/17 00:05:31;;;;;;;32.35;23.48;;;15.60;99.90;;;;;;5087883;28;20031;-93
2021/09/17 00:07:58;;;;;;;30.15;24.42;;;15.70;99.90;;;;;;5070311;28;20051;-94
2021/09/17 00:10:25;;;;;;;31.92;24.38;;;15.70;99.90;;;;;;5069315;28;20044;-93
2021/09/17 00:12:53;;;;;;;31.98;23.58;;;15.70;99.90;;;;;;5066203;28;20051;-93
2021/09/17 00:15:20;;;;;;;33.47;26.10;;;15.70;99.90;;;;;;5075899;28;20039;-95
2021/09/17 00:17:47;;;;;;;27.48;23.23;;;15.80;99.90;;;;;;5083200;28;20043;-94
2021/09/17 00:20:15;;;;;;;32.20;25.75;;;15.80;99.90;;;;;;5070851;28;20043;-94
2021/09/17 00:22:43;;;;;;;30.88;25.35;;;15.90;99.90;;;;;;5074045;28;20037;-95
2021/09/17 00:25:13;;;;;;;26.92;21.23;;;15.90;99.90;;;;;;5077260;28;20040;-94
2021/09/17 00:27:40;;;;;;;32.55;25.30;;;15.90;99.90;;;;;;5074476;28;20051;-93
2021/09/17 00:30:08;;;;;;;31.33;24.35;;;16.00;99.90;;;;;;5070975;28;20055;-94
2021/09/17 00:32:38;;;;;;;30.73;25.35;;;16.00;99.90;;;;;;5069425;28;20039;-94
2021/09/17 00:35:05;;;;;;;32.63;25.45;;;16.00;99.90;;;;;;5096973;28;20094;-91
2021/09/17 00:37:32;;;;;;;32.58;24.25;;;16.00;99.90;;;;;;5041359;28;20052;-88
2021/09/17 00:40:01;;;;;;;29.17;23.25;;;16.00;99.90;;;;;;5070503;28;20040;-89
2021/09/17 00:42:39;;;;;;;34.13;27.02;;;16.00;99.90;;;;;;5093674;28;20214;-88
2021/09/17 00:45:11;;;;;;;33.50;27.48;;;16.10;99.90;;;;;;5078209;28;20040;-88
2021/09/17 00:47:42;;;;;;;34.53;29.00;;;16.10;99.90;;;;;;5103753;28;20035;-95
2021/09/17 00:50:15;;;;;;;35.65;30.27;;;16.10;99.90;;;;;;5093900;28;20044;-93
2021/09/17 00:52:43;;;;;;;33.70;27.83;;;16.10;99.90;;;;;;5068207;28;20035;-93
2021/09/17 00:55:10;;;;;;;37.28;28.45;;;16.10;99.90;;;;;;5065481;28;20114;-94
2021/09/17 00:57:38;;;;;;;32.85;27.65;;;16.10;99.90;;;;;;5078541;28;20052;-94
2021/09/17 01:00:08;;;;;;;35.88;27.63;;;16.10;99.90;;;;;;5074228;28;20410;-93
2021/09/17 01:02:35;;;;;;;34.88;26.77;;;16.10;99.90;;;;;;5075508;28;20047;-93
2021/09/17 01:05:04;;;;;;;33.60;25.13;;;16.10;99.90;;;;;;5053132;28;20573;-92
2021/09/17 01:07:30;;;;;;;35.30;28.20;;;16.10;99.90;;;;;;5070759;28;20596;-93
2021/09/17 01:09:59;;;;;;;32.22;25.33;;;16.10;99.90;;;;;;5083279;28;20517;-93
2021/09/17 01:12:26;;;;;;;35.55;27.58;;;16.20;99.90;;;;;;5074797;28;20537;-93
2021/09/17 01:14:53;;;;;;;39.75;29.60;;;16.20;99.90;;;;;;5069493;28;20545;-94
2021/09/17 01:17:20;;;;;;;36.20;28.13;;;16.10;99.90;;;;;;5066039;28;20525;-93
2021/09/17 01:19:47;;;;;;;33.00;26.55;;;16.10;99.90;;;;;;5067071;28;20509;-93
2021/09/17 01:22:14;;;;;;;32.22;25.67;;;16.20;99.90;;;;;;5068792;28;20490;-94
2021/09/17 01:24:41;;;;;;;30.80;24.48;;;16.20;99.90;;;;;;5079019;28;20391;-94
2021/09/17 01:27:08;;;;;;;35.00;28.52;;;16.20;99.90;;;;;;5071990;28;20051;-93
2021/09/17 01:29:36;;;;;;;36.92;28.77;;;16.20;99.90;;;;;;5065999;28;20043;-94
2021/09/17 01:32:03;;;;;;;36.30;28.08;;;16.20;99.90;;;;;;5075368;28;20052;-92
2021/09/17 01:34:30;;;;;;;39.00;31.27;;;16.20;99.90;;;;;;5076133;28;20048;-93
2021/09/17 01:36:57;;;;;;;40.70;29.83;;;16.20;99.90;;;;;;5072174;28;20048;-95
2021/09/17 01:39:25;;;;;;;33.83;27.88;;;16.20;99.90;;;;;;5080612;28;20042;-94
2021/09/17 01:41:52;;;;;;;35.08;27.98;;;16.20;99.90;;;;;;5076367;28;20043;-93
2021/09/17 01:44:19;;;;;;;35.97;28.52;;;16.20;99.90;;;;;;5095083;28;20023;-91
2021/09/17 01:46:46;;;;;;;36.22;28.30;;;16.20;99.90;;;;;;5089419;28;20050;-93
2021/09/17 01:49:13;;;;;;;41.38;28.08;;;16.10;99.90;;;;;;5075909;28;20044;-93
2021/09/17 01:51:39;;;;;;;37.03;27.38;;;16.10;99.90;;;;;;5061039;28;20059;-93
2021/09/17 01:54:08;;;;;;;37.50;30.38;;;16.10;99.90;;;;;;5074860;28;20044;-93
2021/09/17 01:56:35;;;;;;;38.20;29.13;;;16.10;99.90;;;;;;5073151;28;20044;-93
2021/09/17 01:59:03;;;;;;;36.83;29.50;;;16.00;99.90;;;;;;5053899;28;20044;-92
2021/09/17 02:01:40;;;;;;;34.53;28.40;;;16.00;99.90;;;;;;5076135;28;20044;-94
2021/09/17 02:04:07;;;;;;;37.80;29.30;;;16.00;99.90;;;;;;5068861;28;20043;-94
2021/09/17 02:06:34;;;;;;;34.60;28.25;;;16.00;99.90;;;;;;5072593;28;20044;-93
2021/09/17 02:09:02;;;;;;;37.88;29.67;;;15.90;99.90;;;;;;5066072;28;20048;-94
2021/09/17 02:11:29;;;;;;;38.92;31.33;;;15.90;99.90;;;;;;5073190;28;20039;-94
2021/09/17 02:13:56;;;;;;;37.67;29.48;;;15.90;99.90;;;;;;5075709;28;20043;-94
2021/09/17 02:16:25;;;;;;;38.95;29.15;;;15.90;99.90;;;;;;5073138;28;20051;-93
2021/09/17 02:18:54;;;;;;;33.25;26.88;;;15.90;99.90;;;;;;5067537;28;20395;-94
2021/09/17 02:21:23;;;;;;;36.00;28.70;;;15.90;99.90;;;;;;5055711;28;20040;-94
2021/09/17 02:23:51;;;;;;;35.13;27.30;;;15.90;99.90;;;;;;5069962;28;20490;-84
2021/09/17 02:26:18;;;;;;;35.42;26.98;;;15.90;99.90;;;;;;5054687;28;20503;-84
2021/09/17 02:28:46;;;;;;;33.13;27.02;;;15.80;99.90;;;;;;5071361;28;20051;-84
2021/09/17 02:31:12;;;;;;;33.50;26.90;;;15.90;99.90;;;;;;5089159;28;20587;-84
2021/09/17 02:33:39;;;;;;;31.45;25.75;;;15.90;99.90;;;;;;5067875;28;20048;-84
2021/09/17 02:36:06;;;;;;;32.90;26.23;;;15.90;99.90;;;;;;5073502;28;20044;-85
2021/09/17 02:38:34;;;;;;;34.30;27.50;;;15.90;99.90;;;;;;5079012;28;20048;-84
2021/09/17 02:41:01;;;;;;;32.75;25.38;;;15.90;99.90;;;;;;5063807;28;20032;-85
2021/09/17 02:43:28;;;;;;;28.80;23.98;;;15.80;99.90;;;;;;5090691;28;20027;-85
2021/09/17 02:45:55;;;;;;;30.50;25.02;;;15.80;99.90;;;;;;5072902;28;20050;-84
2021/09/17 02:48:22;;;;;;;29.10;24.95;;;15.80;99.90;;;;;;5076326;28;20087;-84
2021/09/17 02:50:48;;;;;;;31.75;26.55;;;15.80;99.90;;;;;;5082210;28;20028;-84
2021/09/17 02:53:18;;;;;;;34.80;27.55;;;15.80;99.90;;;;;;5074127;28;20043;-84
2021/09/17 02:55:44;;;;;;;29.77;25.75;;;15.80;99.90;;;;;;5068215;28;20410;-84
2021/09/17 02:58:12;;;;;;;35.08;27.67;;;15.80;99.90;;;;;;5092024;28;20418;-84
2021/09/17 03:00:41;;;;;;;35.42;28.38;;;15.80;99.90;;;;;;5086249;28;20482;-84
2021/09/17 03:03:09;;;;;;;36.08;29.17;;;15.80;99.90;;;;;;5088466;28;20483;-84
2021/09/17 03:05:36;;;;;;;32.13;27.85;;;15.80;99.90;;;;;;5080921;28;20039;-84
2021/09/17 03:08:02;;;;;;;36.30;28.10;;;15.80;99.90;;;;;;5097339;28;20031;-84
2021/09/17 03:10:29;;;;;;;35.25;28.05;;;15.80;99.90;;;;;;5081944;28;20360;-84
2021/09/17 03:12:56;;;;;;;34.50;28.13;;;15.80;99.90;;;;;;5058853;28;20051;-84
2021/09/17 03:15:23;;;;;;;34.83;28.35;;;15.80;99.90;;;;;;5061286;28;20063;-94
2021/09/17 03:17:50;;;;;;;35.85;28.33;;;15.80;99.90;;;;;;5067612;28;20048;-93
2021/09/17 03:20:17;;;;;;;36.22;29.48;;;15.80;99.90;;;;;;5068758;28;20461;-94
2021/09/17 03:22:46;;;;;;;36.20;29.55;;;15.70;99.90;;;;;;5071407;28;20144;-94
2021/09/17 03:25:13;;;;;;;39.72;31.02;;;15.70;99.90;;;;;;5068414;28;20036;-93
2021/09/17 03:27:40;;;;;;;36.03;29.35;;;15.80;99.90;;;;;;5070256;28;20043;-94
2021/09/17 03:30:08;;;;;;;36.92;29.15;;;15.70;99.90;;;;;;5077977;28;20078;-94
2021/09/17 03:32:37;;;;;;;35.78;29.15;;;15.80;99.90;;;;;;5087056;28;20051;-94
2021/09/17 03:35:05;;;;;;;33.20;27.13;;;15.80;99.90;;;;;;5075190;28;20043;-95
2021/09/17 03:37:32;;;;;;;34.95;28.25;;;15.70;99.90;;;;;;5072273;28;20044;-94
2021/09/17 03:39:59;;;;;;;36.17;29.58;;;15.70;99.90;;;;;;5070363;28;20399;-94
2021/09/17 03:42:28;;;;;;;39.35;30.63;;;15.70;99.90;;;;;;5062193;28;20519;-95
2021/09/17 03:44:56;;;;;;;41.45;30.55;;;15.70;99.90;;;;;;5070498;28;20035;-95
2021/09/17 03:47:25;;;;;;;40.15;30.73;;;15.70;99.90;;;;;;5077309;28;20050;-94
2021/09/17 03:49:52;;;;;;;39.30;30.80;;;15.70;99.90;;;;;;5078062;28;20044;-94
2021/09/17 03:52:19;;;;;;;37.60;30.67;;;15.70;99.90;;;;;;5088110;28;20043;-94
2021/09/17 03:54:46;;;;;;;40.25;31.33;;;15.70;99.90;;;;;;5070080;28;20589;-95
2021/09/17 03:57:12;;;;;;;42.33;31.65;;;15.70;99.90;;;;;;5070205;28;20395;-93
2021/09/17 03:59:39;;;;;;;38.50;31.08;;;15.70;99.90;;;;;;5071015;28;20044;-94
2021/09/17 04:02:06;;;;;;;41.50;32.13;;;15.70;99.90;;;;;;5070000;28;20407;-95
2021/09/17 04:04:33;;;;;;;40.85;31.90;;;15.70;99.90;;;;;;5073336;28;20478;-94
2021/09/17 04:07:01;;;;;;;44.85;33.55;;;15.70;99.90;;;;;;5074105;28;20040;-94
2021/09/17 04:09:28;;;;;;;41.92;32.83;;;15.70;99.90;;;;;;5045314;28;20040;-94
2021/09/17 04:11:55;;;;;;;47.25;34.50;;;15.70;99.90;;;;;;5091232;28;20043;-95
2021/09/17 04:14:23;;;;;;;44.25;33.70;;;15.70;99.90;;;;;;5079863;28;20036;-95
2021/09/17 04:16:50;;;;;;;41.20;32.33;;;15.60;99.90;;;;;;5067331;28;20044;-95
2021/09/17 04:19:17;;;;;;;44.88;34.75;;;15.60;99.90;;;;;;5083925;28;20047;-94
2021/09/17 04:21:44;;;;;;;42.47;33.05;;;15.60;99.90;;;;;;5086694;28;20044;-96
2021/09/17 04:24:11;;;;;;;45.58;33.97;;;15.60;99.90;;;;;;5101987;28;20048;-93
2021/09/17 04:26:41;;;;;;;46.10;34.58;;;15.50;99.90;;;;;;5073249;28;20394;-95
2021/09/17 04:29:08;;;;;;;45.60;34.70;;;15.50;99.90;;;;;;5059586;28;20556;-93
2021/09/17 04:31:40;;;;;;;45.53;33.92;;;15.50;99.90;;;;;;5062039;28;20052;-95
2021/09/17 04:34:18;;;;;;;45.78;35.38;;;15.60;99.90;;;;;;5068301;28;20055;-87
2021/09/17 04:36:45;;;;;;;47.03;34.50;;;15.60;99.90;;;;;;5063712;28;20074;-88
2021/09/17 04:39:15;;;;;;;44.83;33.47;;;15.50;99.90;;;;;;5087761;28;20561;-86
2021/09/17 04:41:42;;;;;;;41.03;32.65;;;15.60;99.90;;;;;;5096507;28;20047;-88
2021/09/17 04:44:08;;;;;;;46.05;35.38;;;15.50;99.90;;;;;;5058190;28;20062;-88
2021/09/17 04:46:35;;;;;;;47.00;35.03;;;15.50;99.90;;;;;;5068578;28;20055;-88
2021/09/17 04:49:02;;;;;;;45.33;35.75;;;15.50;99.90;;;;;;5077344;28;20040;-88
2021/09/17 04:51:30;;;;;;;45.30;36.10;;;15.60;99.90;;;;;;5085864;28;20537;-88
2021/09/17 04:53:57;;;;;;;48.50;35.80;;;15.60;99.90;;;;;;5063290;28;20047;-87
2021/09/17 04:56:24;;;;;;;46.92;33.92;;;15.60;99.90;;;;;;5061326;28;20048;-88
2021/09/17 04:58:51;;;;;;;45.38;34.42;;;15.60;99.90;;;;;;5096309;28;20028;-89
2021/09/17 05:01:18;;;;;;;46.03;35.30;;;15.60;99.90;;;;;;5083459;28;20048;-89
2021/09/17 05:03:45;;;;;;;46.95;35.42;;;15.60;99.90;;;;;;5055398;28;20040;-89
2021/09/17 05:06:11;;;;;;;46.67;34.03;;;15.60;99.90;;;;;;5074442;28;20039;-88
2021/09/17 05:08:38;;;;;;;47.45;35.55;;;15.60;99.90;;;;;;5058077;28;20047;-89
2021/09/17 05:11:05;;;;;;;48.40;36.00;;;15.60;99.90;;;;;;5070716;28;20505;-89
2021/09/17 05:13:32;;;;;;;50.35;36.75;;;15.60;99.90;;;;;;5071847;28;20047;-87
2021/09/17 05:15:59;;;;;;;47.40;35.63;;;15.60;99.90;;;;;;5068990;28;20048;-88
2021/09/17 05:18:26;;;;;;;43.03;33.45;;;15.60;99.90;;;;;;5089749;28;20704;-88
2021/09/17 05:20:56;;;;;;;51.00;36.50;;;15.60;99.90;;;;;;5075166;28;20036;-90
2021/09/17 05:23:22;;;;;;;45.33;34.30;;;15.60;99.90;;;;;;5065525;28;20399;-89
2021/09/17 05:25:49;;;;;;;50.75;36.42;;;15.60;99.90;;;;;;5085768;28;20032;-89
2021/09/17 05:28:16;;;;;;;49.15;36.75;;;15.60;99.90;;;;;;5066261;28;20058;-89
2021/09/17 05:30:43;;;;;;;46.05;35.65;;;15.60;99.90;;;;;;5074781;28;20498;-89
2021/09/17 05:33:09;;;;;;;44.05;34.50;;;15.60;99.90;;;;;;5060012;28;20051;-89
2021/09/17 05:35:36;;;;;;;47.20;35.30;;;15.60;99.90;;;;;;5072090;28;20538;-89
2021/09/17 05:38:03;;;;;;;52.88;38.60;;;15.70;99.90;;;;;;5070249;28;20402;-90
2021/09/17 05:40:30;;;;;;;49.83;36.35;;;15.70;99.90;;;;;;5077163;28;20036;-89
2021/09/17 05:42:57;;;;;;;49.05;37.28;;;15.70;99.90;;;;;;5091764;28;20451;-89
2021/09/17 05:45:24;;;;;;;46.08;34.65;;;15.80;99.90;;;;;;5088544;28;20024;-88
2021/09/17 05:47:50;;;;;;;49.40;36.58;;;15.80;99.90;;;;;;5028695;28;20143;-88
2021/09/17 05:50:17;;;;;;;49.90;36.53;;;15.80;99.90;;;;;;5075416;28;20039;-90
2021/09/17 05:52:44;;;;;;;52.13;39.25;;;15.80;99.90;;;;;;5068325;28;20040;-90
2021/09/17 05:55:11;;;;;;;57.00;38.85;;;15.80;99.90;;;;;;5074470;28;20044;-89
2021/09/17 05:57:47;;;;;;;55.38;39.55;;;15.80;99.90;;;;;;5073910;28;20047;-92
2021/09/17 06:00:14;;;;;;;53.78;38.97;;;15.80;99.90;;;;;;5064347;28;20048;-82
2021/09/17 06:02:50;;;;;;;48.40;36.22;;;15.80;99.90;;;;;;5073180;28;20052;-91
2021/09/17 06:05:17;;;;;;;48.92;37.65;;;15.70;99.90;;;;;;5064823;28;20043;-92
2021/09/17 06:07:45;;;;;;;51.67;37.10;;;15.70;99.90;;;;;;5073837;28;20052;-83
2021/09/17 06:10:14;;;;;;;52.00;38.10;;;15.80;99.90;;;;;;5073904;28;20043;-92
2021/09/17 06:12:42;;;;;;;52.58;37.60;;;15.80;99.90;;;;;;5072476;28;20043;-84
2021/09/17 06:15:13;;;;;;;52.40;38.10;;;15.80;99.90;;;;;;5096169;28;20036;-84
2021/09/17 06:17:40;;;;;;;52.95;37.25;;;15.90;99.90;;;;;;5061189;28;20054;-83
2021/09/17 06:20:09;;;;;;;53.13;38.05;;;15.80;99.90;;;;;;5074865;28;20039;-84
2021/09/17 06:22:35;;;;;;;50.83;39.25;;;15.90;99.90;;;;;;5088971;28;20418;-84
2021/09/17 06:25:03;;;;;;;49.25;36.42;;;16.00;99.90;;;;;;5052221;28;20050;-84
2021/09/17 06:27:33;;;;;;;49.67;37.05;;;16.00;99.90;;;;;;5085290;28;20450;-86
2021/09/17 06:30:00;;;;;;;52.55;38.00;;;16.10;99.90;;;;;;5054900;28;20386;-91
2021/09/17 06:32:30;;;;;;;51.38;38.60;;;16.10;99.90;;;;;;5044564;28;20516;-92
2021/09/17 06:34:58;;;;;;;55.25;41.70;;;16.20;99.90;;;;;;5043229;28;20853;-84
2021/09/17 06:37:25;;;;;;;55.78;41.70;;;16.30;99.90;;;;;;5045925;28;20048;-91
2021/09/17 06:39:52;;;;;;;53.63;38.42;;;16.30;99.90;;;;;;5069292;28;20043;-91
2021/09/17 06:42:22;;;;;;;52.03;38.40;;;16.40;99.90;;;;;;5075799;28;20048;-88
2021/09/17 06:44:53;;;;;;;51.03;37.80;;;16.50;99.90;;;;;;5060870;28;20059;-91
2021/09/17 06:53:03;;;;;;;45.75;35.95;;;16.60;99.90;;;;;;5053108;28;20140;-93
2021/09/17 06:56:02;;;;;;;50.28;37.30;;;16.70;99.90;;;;;;5018592;28;20045;-92
2021/09/17 06:58:33;;;;;;;49.10;39.05;;;16.80;99.90;;;;;;4999285;28;20060;-92
2021/09/17 07:01:32;;;;;;;;;;;;;;;;;;;;;
2021/09/17 07:04:29;;;;;;;48.50;37.20;;;17.00;99.90;;;;;;5019062;28;20105;-91
2021/09/17 07:07:32;;;;;;;46.00;35.30;;;17.10;99.90;;;;;;5010829;28;20049;-90
2021/09/17 07:11:24;;;;;;;;;;;;;;;;;;;;;
2021/09/17 07:14:15;;;;;;;48.97;39.15;;;17.40;99.90;;;;;;5010821;28;20045;-90
2021/09/17 07:16:47;;;;;;;44.88;35.75;;;17.40;99.90;;;;;;4939155;29;20518;-91
2021/09/17 07:19:56;;;;;;;43.55;34.33;;;17.50;99.90;;;;;;4956885;28;20041;-90
2021/09/17 07:23:09;;;;;;;;;;;;;;;;;;;;;
2021/09/17 07:31:07;;;;;;;37.80;30.00;;;17.80;99.90;;;;;;4895860;29;20044;-91
2021/09/17 07:33:54;;;;;;;39.25;31.40;;;17.80;99.90;;;;;;4926625;28;20047;-91
2021/09/17 07:36:21;;;;;;;37.80;30.25;;;17.80;99.90;;;;;;4992655;28;20070;-90
2021/09/17 07:38:54;;;;;;;36.15;30.45;;;17.90;99.90;;;;;;5044624;28;20059;-92
2021/09/17 07:41:21;;;;;;;37.50;30.63;;;18.00;99.90;;;;;;5080817;28;20404;-91
2021/09/17 07:44:00;;;;;;;39.83;30.50;;;18.00;99.90;;;;;;5083040;28;20052;-94
2021/09/17 07:46:42;;;;;;;36.83;30.50;;;18.10;99.90;;;;;;5113507;28;20042;-94
2021/09/17 07:49:09;;;;;;;36.13;29.35;;;18.20;99.90;;;;;;5085992;28;20044;-94
2021/09/17 07:52:07;;;;;;;36.92;30.77;;;18.20;99.90;;;;;;5080646;28;20490;-94
2021/09/17 07:55:15;;;;;;;36.88;31.35;;;18.30;99.90;;;;;;5100519;28;20047;-86
2021/09/17 07:57:51;;;;;;;35.50;29.00;;;18.40;99.90;;;;;;5083297;28;20035;-91
2021/09/17 08:00:18;;;;;;;36.85;30.27;;;18.50;99.90;;;;;;5037764;28;20048;-90
2021/09/17 08:02:45;;;;;;;33.40;29.80;;;18.60;99.90;;;;;;5073381;28;20062;-89
2021/09/17 08:05:14;;;;;;;33.40;27.77;;;18.60;99.90;;;;;;5059874;28;20043;-91
2021/09/17 08:07:53;;;;;;;35.28;29.52;;;18.60;99.90;;;;;;5083085;28;20040;-93
2021/09/17 08:10:19;;;;;;;37.05;29.77;;;18.70;99.90;;;;;;5071178;28;20051;-91
2021/09/17 08:12:46;;;;;;;33.72;29.10;;;18.80;99.90;;;;;;5077772;28;20039;-93
2021/09/17 08:15:14;;;;;;;35.90;28.30;;;18.90;99.90;;;;;;5080384;28;20039;-93
2021/09/17 08:17:46;;;;;;;31.15;25.85;;;18.90;99.90;;;;;;5060458;28;20085;-93
2021/09/17 08:20:25;;;;;;;33.45;27.65;;;19.00;99.90;;;;;;5092209;28;20041;-94
2021/09/17 08:22:56;;;;;;;32.83;26.92;;;19.10;99.90;;;;;;5070456;28;20031;-94
2021/09/17 08:25:30;;;;;;;31.73;27.85;;;19.20;99.90;;;;;;5072677;28;20043;-94
2021/09/17 08:27:57;;;;;;;33.45;27.63;;;19.30;99.90;;;;;;5074553;28;20044;-94
2021/09/17 08:30:26;;;;;;;30.58;24.98;;;19.40;99.90;;;;;;5069463;28;20050;-94
2021/09/17 08:33:13;;;;;;;33.03;26.85;;;19.40;99.90;;;;;;5080319;28;20048;-92
2021/09/17 08:36:13;;;;;;;30.35;26.67;;;19.50;99.90;;;;;;5069746;28;20040;-93
2021/09/17 08:39:02;;;;;;;26.08;23.30;;;19.50;99.90;;;;;;5075975;28;20039;-94
2021/09/17 08:41:38;;;;;;;31.20;25.20;;;19.50;99.90;;;;;;5089705;28;20043;-93
2021/09/17 08:44:27;;;;;;;26.13;23.33;;;19.60;99.90;;;;;;5073496;28;20044;-94
2021/09/17 08:47:32;;;;;;;29.63;25.10;;;19.70;99.90;;;;;;5078126;28;20051;-93
2021/09/17 08:50:53;;;;;;;28.70;24.38;;;19.90;99.90;;;;;;5091734;28;20056;-91
2021/09/17 08:53:35;;;;;;;29.58;26.35;;;20.00;99.90;;;;;;5062516;28;20050;-91
2021/09/17 08:56:56;;;;;;;27.15;23.05;;;20.20;99.90;;;;;;5062436;28;20051;-90
2021/09/17 08:59:31;;;;;;;27.52;22.98;;;20.40;99.90;;;;;;5009517;28;20049;-89
2021/09/17 09:02:22;;;;;;;33.20;28.80;;;20.60;99.90;;;;;;5005282;28;20401;-90
2021/09/17 09:05:06;;;;;;;32.85;29.33;;;20.80;99.90;;;;;;5078680;28;20048;-90
2021/09/17 09:07:38;;;;;;;27.58;24.63;;;20.90;99.90;;;;;;5086546;28;20054;-92
2021/09/17 09:10:13;;;;;;;25.20;22.15;;;21.00;99.90;;;;;;5067124;28;20403;-93
2021/09/17 09:12:48;;;;;;;32.30;24.92;;;21.10;99.90;;;;;;5073319;28;20050;-92
2021/09/17 09:15:26;;;;;;;25.30;21.05;;;21.10;99.90;;;;;;5070874;28;20036;-93
2021/09/17 09:18:07;;;;;;;29.63;24.38;;;21.10;99.90;;;;;;5067138;28;20043;-84
2021/09/17 09:20:39;;;;;;;23.15;20.58;;;21.10;99.90;;;;;;5078231;28;20135;-86
2021/09/17 09:23:24;;;;;;;25.98;21.50;;;21.20;99.90;;;;;;5085940;28;20158;-84
2021/09/17 09:25:58;;;;;;;27.08;23.67;;;21.30;99.90;;;;;;5075596;28;20039;-85
2021/09/17 09:28:43;;;;;;;24.38;20.83;;;21.40;99.90;;;;;;5095132;28;20877;-83
2021/09/17 09:31:20;;;;;;;23.75;19.08;;;21.50;99.90;;;;;;5071170;28;20047;-85
2021/09/17 09:33:59;;;;;;;24.45;21.20;;;21.60;99.90;;;;;;5096064;28;20039;-87
2021/09/17 09:37:30;;;;;;;25.63;22.27;;;21.70;99.90;;;;;;5086104;28;20425;-85
2021/09/17 09:40:04;;;;;;;26.00;20.52;;;21.90;99.90;;;;;;5077379;28;20052;-85
2021/09/17 09:42:43;;;;;;;23.40;19.85;;;22.10;99.90;;;;;;5069239;28;20047;-85
2021/09/17 09:45:16;;;;;;;20.75;18.25;;;22.20;99.80;;;;;;5065464;28;20055;-85
2021/09/17 09:47:57;;;;;;;20.40;18.27;;;22.40;99.60;;;;;;5076836;28;20055;-85
2021/09/17 09:50:26;;;;;;;20.73;18.55;;;22.60;99.30;;;;;;5079303;28;20043;-84
2021/09/17 09:52:56;;;;;;;23.30;20.80;;;22.70;98.80;;;;;;5078513;28;20035;-84
2021/09/17 09:55:23;;;;;;;22.52;20.02;;;22.70;98.10;;;;;;5084173;28;20035;-85
2021/09/17 09:57:51;;;;;;;21.42;19.13;;;22.70;97.90;;;;;;5061447;28;20137;-86
2021/09/17 10:00:27;;;;;;;21.45;18.25;;;22.70;97.90;;;;;;5073108;28;20487;-85
2021/09/17 10:02:57;;;;;;;20.10;16.65;;;22.70;97.90;;;;;;5062352;28;20414;-85
2021/09/17 10:05:27;;;;;;;18.15;16.25;;;22.80;98.00;;;;;;5083636;28;20039;-85
2021/09/17 10:07:57;;;;;;;17.95;15.65;;;22.90;97.70;;;;;;5087729;28;20031;-84
2021/09/17 10:10:25;;;;;;;19.65;17.55;;;22.90;97.50;;;;;;5088492;28;20075;-84
2021/09/17 10:12:52;;;;;;;20.33;17.67;;;23.00;97.20;;;;;;5061920;28;20043;-85
2021/09/17 10:15:25;;;;;;;18.83;16.48;;;23.00;97.10;;;;;;5070885;28;20044;-84
2021/09/17 10:17:55;;;;;;;14.63;12.80;;;23.00;96.90;;;;;;5074175;28;20044;-85
2021/09/17 10:20:36;;;;;;;17.90;14.27;;;22.90;97.00;;;;;;5075519;28;20040;-84
2021/09/17 10:23:29;;;;;;;15.13;13.60;;;22.90;96.70;;;;;;5095399;28;20055;-80
2021/09/17 10:26:07;;;;;;;15.27;13.77;;;23.00;96.60;;;;;;5073359;28;20047;-82
2021/09/17 10:28:55;;;;;;;15.63;13.20;;;23.10;96.40;;;;;;5067615;28;20048;-84
2021/09/17 10:31:31;;;;;;;15.93;13.07;;;23.10;96.20;;;;;;5061819;28;20403;-90
2021/09/17 10:35:04;;;;;;;13.98;12.30;;;23.30;96.10;;;;;;5033310;28;20111;-94
2021/09/17 10:38:18;;;;;;;16.40;13.75;;;23.50;95.80;;;;;;5020858;28;20048;-88
2021/09/17 10:41:06;;;;;;;18.23;15.82;;;23.50;95.40;;;;;;5072314;28;20465;-89
2021/09/17 10:43:46;;;;;;;17.33;15.52;;;23.50;95.10;;;;;;5074618;28;20040;-90
2021/09/17 10:46:22;;;;;;;16.33;14.40;;;23.50;95.10;;;;;;5071104;28;20050;-88
2021/09/17 10:48:51;;;;;;;17.92;16.13;;;23.50;95.00;;;;;;5092617;28;20040;-89
2021/09/17 10:51:31;;;;;;;17.40;15.20;;;23.60;94.90;;;;;;5087250;28;20051;-89
2021/09/17 10:54:00;;;;;;;19.10;16.67;;;23.60;95.20;;;;;;5065108;28;20063;-90
2021/09/17 10:56:27;;;;;;;17.98;16.13;;;23.70;94.80;;;;;;5064201;28;20048;-90
2021/09/17 10:59:16;;;;;;;17.73;15.88;;;23.60;94.70;;;;;;5058183;28;20044;-89
2021/09/17 11:02:00;;;;;;;16.95;15.25;;;23.60;94.70;;;;;;5060443;28;20040;-87
2021/09/17 11:04:30;;;;;;;18.17;14.88;;;23.60;94.40;;;;;;5093721;28;20043;-87
2021/09/17 11:07:16;;;;;;;15.93;14.02;;;23.60;94.60;;;;;;5073749;28;20044;-87
2021/09/17 11:09:56;;;;;;;16.90;15.20;;;23.70;94.70;;;;;;5091136;28;20052;-86
2021/09/17 11:12:27;;;;;;;17.90;16.10;;;23.80;94.60;;;;;;5079736;28;20044;-89
2021/09/17 11:15:04;;;;;;;21.17;17.97;;;23.90;94.30;;;;;;5079447;28;20040;-92
2021/09/17 11:17:52;;;;;;;19.55;17.55;;;23.90;94.20;;;;;;5061665;28;20054;-92
2021/09/17 11:20:28;;;;;;;17.10;15.32;;;24.10;94.00;;;;;;5073188;28;20125;-93
2021/09/17 11:23:40;;;;;;;17.77;15.13;;;24.20;94.00;;;;;;5085007;28;20035;-88
2021/09/17 11:26:08;;;;;;;19.33;17.35;;;24.20;93.70;;;;;;5074599;28;20046;-88
2021/09/17 11:28:34;;;;;;;18.45;16.08;;;24.30;93.70;;;;;;5079898;28;20525;-91
2021/09/17 11:31:15;;;;;;;19.38;15.27;;;24.40;93.60;;;;;;5065754;28;20064;-90
2021/09/17 11:33:43;;;;;;;19.65;17.55;;;24.30;93.70;;;;;;5060662;28;20055;-89
2021/09/17 11:36:11;;;;;;;17.77;15.82;;;24.40;93.20;;;;;;5079937;28;20127;-88
2021/09/17 11:38:40;;;;;;;20.15;18.02;;;24.30;93.20;;;;;;5067087;28;20047;-89
2021/09/17 11:41:07;;;;;;;19.98;17.00;;;24.40;93.30;;;;;;5063752;28;20047;-88
2021/09/17 11:43:44;;;;;;;20.15;17.70;;;24.40;93.10;;;;;;5063133;28;20047;-89
2021/09/17 11:46:10;;;;;;;17.23;15.43;;;24.40;92.80;;;;;;5061975;28;20040;-88
2021/09/17 11:48:37;;;;;;;16.65;14.95;;;24.40;92.90;;;;;;5061884;28;20059;-85
2021/09/17 11:51:11;;;;;;;17.13;15.13;;;24.40;93.10;;;;;;5051753;28;20044;-88
2021/09/17 11:53:45;;;;;;;18.05;16.25;;;24.50;93.40;;;;;;5077257;28;20070;-88
2021/09/17 11:56:12;;;;;;;18.70;15.65;;;24.70;93.30;;;;;;5067726;28;20047;-87
2021/09/17 11:58:47;;;;;;;17.05;15.27;;;24.90;92.90;;;;;;5065222;28;20118;-88
2021/09/17 12:01:25;;;;;;;20.58;14.85;;;25.00;92.70;;;;;;5071267;28;20077;-88
2021/09/17 12:03:54;;;;;;;16.67;15.05;;;25.20;92.70;;;;;;5065609;28;20127;-88
2021/09/17 12:06:21;;;;;;;33.35;16.20;;;25.80;92.00;;;;;;5063924;28;20053;-87
2021/09/17 12:08:47;;;;;;;21.98;18.30;;;26.10;91.50;;;;;;5093500;28;20035;-88
2021/09/17 12:11:20;;;;;;;20.08;17.02;;;26.30;90.50;;;;;;5081931;28;20040;-87
2021/09/17 12:13:56;;;;;;;19.33;17.38;;;26.50;90.00;;;;;;5082766;28;20051;-89
2021/09/17 12:16:23;;;;;;;16.33;14.40;;;26.80;89.30;;;;;;5067656;28;20047;-87
2021/09/17 12:19:01;;;;;;;19.58;17.20;;;27.30;88.80;;;;;;5067360;28;20126;-88
2021/09/17 12:21:28;;;;;;;17.25;15.20;;;28.00;86.60;;;;;;5071028;28;20036;-88
2021/09/17 12:23:55;;;;;;;18.88;16.85;;;28.50;84.90;;;;;;5079319;28;20043;-88
2021/09/17 12:26:24;;;;;;;19.38;16.42;;;28.80;83.50;;;;;;5064757;28;20040;-88
2021/09/17 12:28:53;;;;;;;38.63;15.70;;;28.70;82.70;;;;;;5055447;28;20059;-89
2021/09/17 12:31:38;;;;;;;24.05;17.98;;;28.80;82.70;;;;;;5076604;28;20050;-88
2021/09/17 12:34:12;;;;;;;27.55;16.60;;;28.80;80.50;;;;;;5071313;28;20063;-88
2021/09/17 12:36:39;;;;;;;42.25;16.48;;;28.90;81.20;;;;;;5062441;28;20044;-89
2021/09/17 12:39:08;;;;;;;78.07;17.02;;;29.50;80.10;;;;;;5097665;28;20039;-88
2021/09/17 12:41:35;;;;;;;41.13;14.27;;;30.10;78.20;;;;;;5063873;28;20063;-83
2021/09/17 12:44:10;;;;;;;16.73;14.43;;;30.70;74.90;;;;;;5085559;28;20048;-83
2021/09/17 12:46:42;;;;;;;16.35;14.65;;;31.00;72.30;;;;;;5075998;28;20059;-82
2021/09/17 12:49:13;;;;;;;13.55;12.23;;;31.40;71.80;;;;;;5092517;28;20032;-82
2021/09/17 12:51:40;;;;;;;15.65;14.07;;;31.90;71.00;;;;;;5096254;28;20504;-82
2021/09/17 12:54:12;;;;;;;16.95;15.10;;;32.40;68.50;;;;;;5068234;28;20048;-81
2021/09/17 12:56:39;;;;;;;15.98;14.38;;;32.60;66.80;;;;;;5073290;28;20937;-81
2021/09/17 12:59:14;;;;;;;13.23;12.00;;;32.70;65.50;;;;;;5086235;28;20040;-82
2021/09/17 13:01:42;;;;;;;14.95;13.50;;;32.80;65.50;;;;;;5094803;28;20054;-81
2021/09/17 13:04:09;;;;;;;12.70;11.35;;;33.10;64.20;;;;;;5079891;28;20145;-82
2021/09/17 13:06:35;;;;;;;14.25;12.77;;;33.40;63.60;;;;;;5060789;28;20056;-83
2021/09/17 13:09:44;;;;;;;12.75;11.32;;;33.60;62.50;;;;;;5063072;28;20055;-83